AirNav   SIMCOM
 
 1705 users online  

0M2 Reelfoot Lake Airport
Tiptonville, Tennessee, USA


FAA INFORMATION EFFECTIVE 12 OCTOBER 2017

Location

FAA Identifier: 0M2
Lat/Long: 36-28-31.2000N / 089-20-46.7000W
36-28.520000N / 089-20.778333W
36.4753333 / -89.3463056
(estimated)
Elevation: 289 ft. / 88 m (estimated)
Variation: 02E (1985)
From city: 9 miles NE of TIPTONVILLE, TN
Time zone: UTC -5 (UTC -6 during Standard Time)
Zip code: 38079

Airport Operations

Airport use: Open to the public
Control tower: no
ARTCC: MEMPHIS CENTER
FSS: JACKSON FLIGHT SERVICE STATION
NOTAMs facility: MKL (NOTAM-D service available)
Attendance: UNATNDD
Wind indicator: yes
Segmented circle: yes
Beacon: white-green (lighted land airport)
OTS INDEFLY. Operates sunset to sunrise.

Airport Communications

CTAF: 122.9
WX AWOS-3 at UCY (18 nm E): 135.325 (731-885-9161)

Nearby radio navigation aids

VOR radial/distance  VOR name  Freq  Var
DYRr354/27.4DYERSBURG VORTAC116.8003E
MAWr097/27.7MALDEN VORTAC111.2003E

 
NDB name  Hdg/Dist  Freq  Var  ID
CHARLESTON181/22.220802WCHQ -.-. .... --.-
CAIRO190/35.639700ECIR -.-. .. .-.

Airport Services

Parking: tiedowns
Airframe service: NONE
Powerplant service: NONE
Bottled oxygen: NONE
Bulk oxygen: NONE

Runway Information

Runway 1/19

Dimensions: 3500 x 75 ft. / 1067 x 23 m
Surface: asphalt, in good condition
Weight bearing capacity: 
Single wheel: 25.0
Double wheel: 37.0
RUNWAY 1  RUNWAY 19
Latitude: 36-28.234363N36-28.807207N
Longitude: 089-20.821002W089-20.735768W
Elevation: 287.0 ft.288.0 ft.
Traffic pattern: leftright
Runway heading: 005 magnetic, 007 true185 magnetic, 187 true
Markings: basic, in good conditionbasic, in good condition
Runway end identifier lights: nono
Obstructions: 56 ft. trees, 1011 ft. from runway, 100 ft. right of centerline, 14:1 slope to clear100 ft. fence, 2188 ft. from runway, 162 ft. left of centerline, 20:1 slope to clear

Airport Ownership and Management from official FAA records

Ownership: Publicly-owned
Owner: TDOT OFFICE OF AERONAUTICS
PO BOX 17326
NASHVILLE, TN 37217
Phone 615-741-3208
Manager: PAUL PERRY
PO BOX 17326
NASHVILLE, TN 37217
Phone 615-741-3208

Airport Operational Statistics

Aircraft based on the field: 1
Single engine airplanes: 1
    
Aircraft operations: avg 54/week *
89% transient general aviation
11% military
<1% local general aviation
* for 12-month period ending 30 December 2016

Additional Remarks

MAINTAIN 2000 FT OVER LAKE EAST OF ARPT (FEDERAL GAME REFUGE).

Instrument Procedures

There are no published instrument procedures at 0M2.

Some nearby airports with instrument procedures:

KEIW - County Memorial Airport (13 nm W)
KUCY - Everett-Stewart Regional Airport (18 nm E)
KCHQ - Mississippi County Airport (22 nm N)
M05 - Caruthersville Memorial Airport (24 nm SW)
M85 - Gideon Memorial Airport (27 nm W)
 
Loc | Ops | Rwys | IFR | FBO | Links
Com | Nav | Svcs | Stats | Notes


 
Area around 0M2 (Reelfoot Lake Airport)
 
Road maps at: MapQuest Bing Google
 
Aerial photo
WARNING: Photo may not be current or correct
Aerial photo of 0M2 (Reelfoot Lake Airport)
Photo by H Hough
Taken in September 2012
looking north.

Do you have a better or more recent aerial photo of Reelfoot Lake Airport that you would like to share? If so, please send us your photo.

 
Sectional chart

 
Airport distance calculator
Flying to Reelfoot Lake Airport? Find the distance to fly.

From to 0M2

Sunrise and sunset
Times for 23-Oct-2017
 Local
(UTC-5)
 Zulu
(UTC)
Morning civil twilight06:4711:47
Sunrise07:1312:13
Sunset18:1123:11
Evening civil twilight18:3723:37

Current date and time
Zulu (UTC)  23-Oct-2017 18:07:04
Local (UTC-5)  23-Oct-2017 13:07:04
 
METAR
KUCY 
18nm E 
231755Z AUTO 30010KT 10SM FEW033 FEW038 BKN075 16/08 A2993 RMK A01
KSIK 
27nm N 
231755Z AUTO 30003KT 10SM CLR 17/08 A2991 RMK AO2
KDYR 
29nm S 
231756Z AUTO 26009G17KT 10SM 18/09 A2996 RMK AO2 SLP160 6//// T01780089 10178 20111 58006 PNO $
KMAW 
32nm W 
231735Z AUTO 26008KT 10SM CLR 17/08 A2996 RMK AO2
KCIR 
36nm N 
231755Z AUTO 26009KT 10SM OVC090 16/06 A2990 RMK AO2 T01630055 10169 20111
KTKX 
37nm SW 
231755Z AUTO 29010KT 6SM HZ BKN110 19/08 A2993 RMK AO2
TAF
KPAH 
45nm NE 
231721Z 2318/2418 29009G15KT P6SM OVC050 FM232000 28009KT P6SM SCT080 FM241400 28015G27KT P6SM BKN120
KCGI 
47nm N 
231721Z 2318/2418 25008KT P6SM SCT025 SCT080 FM240100 29009KT P6SM SCT060 FM241400 28015G27KT P6SM BKN120
NOTAMs
Click for the latest NOTAMs
NOTAMs are issued by the DoD/FAA and will open in a separate window not controlled by AirNav.

 

 
 

Would you like to see your business listed on this page?

 If your business provides an interesting product or service to pilots, flight crews, aircraft, or users of the Reelfoot Lake Airport, you should consider listing it here.  To start the listing process, click on the button below
 
Add a business
 

Other Pages about Reelfoot Lake Airport

Update a link
 
Copyright © AirNav, LLC. All rights reserved. Privacy Policy  Contact